createdAt,value
2016-12-11T00:00:42.408Z,-0.21
2016-12-11T00:01:42.744Z,-0.13
2016-12-11T00:02:42.740Z,-0.21
2016-12-11T00:03:42.400Z,-0.24
2016-12-11T00:04:42.720Z,-0.13
2016-12-11T00:05:42.720Z,-0.2
2016-12-11T00:06:42.713Z,-0.23
2016-12-11T00:07:42.388Z,-0.2
2016-12-11T00:08:42.704Z,-0.13
2016-12-11T00:09:42.380Z,-0.07
2016-12-11T00:10:42.369Z,-0.1
2016-12-11T00:11:42.696Z,-0.1
2016-12-11T00:12:42.693Z,-0.1
2016-12-11T00:13:42.684Z,-0.07
2016-12-11T00:14:42.677Z,-0.07
2016-12-11T00:15:42.685Z,-0.15
2016-12-11T00:16:42.349Z,-0.23
2016-12-11T00:17:42.349Z,-0.17
2016-12-11T00:18:42.665Z,-0.23
2016-12-11T00:19:42.001Z,-0.27
2016-12-11T00:20:42.329Z,-0.28
2016-12-11T00:21:42.337Z,-0.17
2016-12-11T00:22:42.318Z,-0.26
2016-12-11T00:23:42.321Z,-0.21
2016-12-11T00:24:42.317Z,-0.21
2016-12-11T00:25:42.309Z,-0.17
2016-12-11T00:26:42.306Z,-0.24
2016-12-11T00:27:41.970Z,-0.26
2016-12-11T00:28:42.626Z,-0.13
2016-12-11T00:29:42.626Z,-0.1
2016-12-11T00:30:42.290Z,-0.24
2016-12-11T00:31:42.290Z,-0.21
2016-12-11T00:32:42.642Z,-0.21
2016-12-11T00:33:42.622Z,-0.13
2016-12-11T00:34:42.271Z,-0.2
2016-12-11T00:35:42.263Z,-0.26
2016-12-11T00:36:42.591Z,-0.26
2016-12-11T00:37:42.586Z,-0.26
2016-12-11T00:38:42.255Z,-0.24
2016-12-11T00:39:42.572Z,-0.24
2016-12-11T00:40:42.571Z,-0.2
2016-12-11T00:41:41.919Z,-0.33
2016-12-11T00:42:42.563Z,-0.24
2016-12-11T00:43:42.559Z,-0.23
2016-12-11T00:44:42.559Z,-0.18
2016-12-11T00:45:42.547Z,-0.21
2016-12-11T00:46:42.543Z,-0.15
2016-12-11T00:47:42.215Z,-0.15
2016-12-11T00:48:42.543Z,-0.12
2016-12-11T00:49:42.536Z,-0.17
2016-12-11T00:50:45.563Z,-0.26
2016-12-11T00:51:42.524Z,-0.23
2016-12-11T00:52:42.520Z,-0.3
2016-12-11T00:53:42.516Z,-0.18
2016-12-11T00:54:42.180Z,-0.23
2016-12-11T00:55:41.861Z,-0.21
2016-12-11T00:56:42.508Z,-0.27
2016-12-11T00:57:42.172Z,-0.23
2016-12-11T00:58:42.172Z,-0.24
2016-12-11T00:59:42.489Z,-0.21
2016-12-11T01:00:41.836Z,-0.23
2016-12-11T01:01:42.160Z,-0.24
2016-12-11T01:02:41.818Z,-0.3
2016-12-11T01:03:42.185Z,-0.33
2016-12-11T01:04:41.816Z,-0.31
2016-12-11T01:05:41.817Z,-0.3
2016-12-11T01:06:42.465Z,-0.36
2016-12-11T01:07:41.805Z,-0.39
2016-12-11T01:08:42.133Z,-0.36
2016-12-11T01:09:42.466Z,-0.38
2016-12-11T01:10:42.114Z,-0.42
2016-12-11T01:11:42.442Z,-0.42
2016-12-11T01:12:42.446Z,-0.49
2016-12-11T01:13:42.438Z,-0.49
2016-12-11T01:14:42.106Z,-0.56
2016-12-11T01:15:42.094Z,-0.53
2016-12-11T01:16:42.427Z,-0.53
2016-12-11T01:17:42.411Z,-0.59
2016-12-11T01:18:42.418Z,-0.54
2016-12-11T01:19:42.415Z,-0.56
2016-12-11T01:20:42.407Z,-0.46
2016-12-11T01:21:42.399Z,-0.46
2016-12-11T01:22:42.063Z,-0.45
2016-12-11T01:23:42.063Z,-0.48
2016-12-11T01:24:42.380Z,-0.54
2016-12-11T01:25:42.392Z,-0.53
2016-12-11T01:26:41.740Z,-0.6
2016-12-11T01:27:42.372Z,-0.62
2016-12-11T01:28:42.048Z,-0.62
2016-12-11T01:29:42.368Z,-0.59
2016-12-11T01:30:42.364Z,-0.69
2016-12-11T01:31:42.025Z,-0.59
2016-12-11T01:32:42.025Z,-0.63
2016-12-11T01:33:42.353Z,-0.62
2016-12-11T01:34:42.025Z,-0.6
2016-12-11T01:35:42.345Z,-0.62
2016-12-11T01:36:42.350Z,-0.6
2016-12-11T01:37:42.009Z,-0.63
2016-12-11T01:38:42.333Z,-0.64
2016-12-11T01:39:42.382Z,-0.64
2016-12-11T01:40:41.666Z,-0.66
2016-12-11T01:41:41.986Z,-0.57
2016-12-11T01:42:41.978Z,-0.62
2016-12-11T01:43:41.986Z,-0.56
2016-12-11T01:44:41.974Z,-0.63
2016-12-11T01:45:41.975Z,-0.67
2016-12-11T01:46:42.295Z,-0.64
2016-12-11T01:47:41.975Z,-0.66
2016-12-11T01:48:41.955Z,-0.63
2016-12-11T01:49:41.975Z,-0.62
2016-12-11T01:50:41.952Z,-0.56
2016-12-11T01:51:42.275Z,-0.64
2016-12-11T01:52:41.951Z,-0.6
2016-12-11T01:53:42.268Z,-0.63
2016-12-11T01:54:41.943Z,-0.66
2016-12-11T01:55:41.943Z,-0.66
2016-12-11T01:56:41.616Z,-0.67
2016-12-11T01:57:42.256Z,-0.7
2016-12-11T01:58:42.253Z,-0.72
2016-12-11T01:59:42.237Z,-0.7
2016-12-11T02:00:42.244Z,-0.7
2016-12-11T02:01:42.249Z,-0.69
2016-12-11T02:02:41.896Z,-0.67
2016-12-11T02:03:41.900Z,-0.67
2016-12-11T02:04:42.221Z,-0.69
2016-12-11T02:05:41.885Z,-0.72
2016-12-11T02:06:41.885Z,-0.66
2016-12-11T02:07:41.553Z,-0.7
2016-12-11T02:08:41.553Z,-0.7
2016-12-11T02:09:42.201Z,-0.72
2016-12-11T02:10:41.865Z,-0.74
2016-12-11T02:11:41.861Z,-0.72
2016-12-11T02:12:41.861Z,-0.74
2016-12-11T02:13:41.853Z,-0.75
2016-12-11T02:14:41.850Z,-0.7
2016-12-11T02:15:42.174Z,-0.78
2016-12-11T02:16:41.526Z,-0.78
2016-12-11T02:17:42.162Z,-0.77
2016-12-11T02:18:41.834Z,-0.91
2016-12-11T02:19:42.158Z,-0.85
2016-12-11T02:20:42.154Z,-0.81
2016-12-11T02:21:42.150Z,-0.87
2016-12-11T02:22:41.494Z,-0.77
2016-12-11T02:23:41.817Z,-0.82
2016-12-11T02:24:41.479Z,-0.84
2016-12-11T02:25:41.802Z,-0.77
2016-12-11T02:26:42.126Z,-0.72
2016-12-11T02:27:42.119Z,-0.85
2016-12-11T02:28:41.794Z,-0.85
2016-12-11T02:29:42.115Z,-0.75
2016-12-11T02:30:42.111Z,-0.78
2016-12-11T02:31:42.099Z,-0.78
2016-12-11T02:32:41.779Z,-0.78
2016-12-11T02:33:41.775Z,-0.8
2016-12-11T02:34:41.771Z,-0.85
2016-12-11T02:35:42.095Z,-0.81
2016-12-11T02:36:41.959Z,-0.91
2016-12-11T02:37:42.079Z,-0.75
2016-12-11T02:38:41.755Z,-0.8
2016-12-11T02:39:41.755Z,-0.91
2016-12-11T02:40:41.415Z,-0.78
2016-12-11T02:41:41.743Z,-0.72
2016-12-11T02:42:42.055Z,-0.81
2016-12-11T02:43:41.735Z,-0.87
2016-12-11T02:44:41.735Z,-0.82
2016-12-11T02:45:42.051Z,-0.91
2016-12-11T02:46:42.043Z,-0.89
2016-12-11T02:47:42.035Z,-0.93
2016-12-11T02:48:42.043Z,-1.04
2016-12-11T02:49:41.695Z,-1.01
2016-12-11T02:50:41.692Z,-1.07
2016-12-11T02:51:41.695Z,-1.03
2016-12-11T02:52:41.364Z,-1.04
2016-12-11T02:53:41.692Z,-1.07
2016-12-11T02:54:41.351Z,-1.18
2016-12-11T02:55:41.675Z,-1.12
2016-12-11T02:56:41.999Z,-1.14
2016-12-11T02:57:41.988Z,-1.12
2016-12-11T02:58:41.987Z,-1.12
2016-12-11T02:59:41.991Z,-1.22
2016-12-11T03:00:41.979Z,-1.21
2016-12-11T03:01:41.643Z,-1.18
2016-12-11T03:02:41.963Z,-1.18
2016-12-11T03:03:41.315Z,-1.24
2016-12-11T03:04:41.303Z,-1.27
2016-12-11T03:05:41.639Z,-1.25
2016-12-11T03:06:41.987Z,-1.3
2016-12-11T03:07:41.627Z,-1.17
2016-12-11T03:08:41.950Z,-1.27
2016-12-11T03:09:41.622Z,-1.32
2016-12-11T03:10:41.935Z,-1.19
2016-12-11T03:11:41.606Z,-1.22
2016-12-11T03:12:41.599Z,-1.29
2016-12-11T03:13:41.599Z,-1.29
2016-12-11T03:14:41.267Z,-1.36
2016-12-11T03:15:41.583Z,-1.39
2016-12-11T03:16:41.919Z,-1.38
2016-12-11T03:17:41.906Z,-1.38
2016-12-11T03:18:41.911Z,-1.35
2016-12-11T03:19:41.571Z,-1.32
2016-12-11T03:20:41.895Z,-1.38
2016-12-11T03:21:41.887Z,-1.36
2016-12-11T03:22:41.563Z,-1.32
2016-12-11T03:23:41.559Z,-1.39
2016-12-11T03:24:41.883Z,-1.29
2016-12-11T03:25:41.543Z,-1.36
2016-12-11T03:26:41.543Z,-1.35
2016-12-11T03:27:41.543Z,-1.39
2016-12-11T03:28:41.535Z,-1.38
2016-12-11T03:29:41.531Z,-1.33
2016-12-11T03:30:41.199Z,-1.25
2016-12-11T03:31:41.511Z,-1.25
2016-12-11T03:32:41.511Z,-1.38
2016-12-11T03:33:41.515Z,-1.35
2016-12-11T03:34:41.507Z,-1.3
2016-12-11T03:35:41.495Z,-1.3
2016-12-11T03:36:41.831Z,-1.36
2016-12-11T03:37:41.504Z,-1.33
2016-12-11T03:38:41.824Z,-1.39
2016-12-11T03:39:41.156Z,-1.46
2016-12-11T03:40:41.480Z,-1.48
2016-12-11T03:41:41.808Z,-1.5
2016-12-11T03:42:41.808Z,-1.4
2016-12-11T03:43:41.468Z,-1.32
2016-12-11T03:44:41.788Z,-1.4
2016-12-11T03:45:41.780Z,-1.38
2016-12-11T03:46:41.127Z,-1.45
2016-12-11T03:47:41.448Z,-1.43
2016-12-11T03:48:41.452Z,-1.53
2016-12-11T03:49:41.444Z,-1.5
2016-12-11T03:50:41.764Z,-1.56
2016-12-11T03:51:41.424Z,-1.53
2016-12-11T03:52:41.100Z,-1.54
2016-12-11T03:53:41.744Z,-1.54
2016-12-11T03:54:41.735Z,-1.5
2016-12-11T03:55:41.412Z,-1.58
2016-12-11T03:56:41.732Z,-1.6
2016-12-11T03:57:41.412Z,-1.68
2016-12-11T03:58:41.404Z,-1.63
2016-12-11T03:59:41.072Z,-1.6
2016-12-11T04:00:41.724Z,-1.66
2016-12-11T04:01:41.708Z,-1.66
2016-12-11T04:02:41.712Z,-1.63
2016-12-11T04:03:41.376Z,-1.61
2016-12-11T04:04:41.372Z,-1.66
2016-12-11T04:05:41.704Z,-1.58
2016-12-11T04:06:41.368Z,-1.66
2016-12-11T04:07:41.688Z,-1.58
2016-12-11T04:08:41.024Z,-1.54
2016-12-11T04:09:41.348Z,-1.53
2016-12-11T04:10:41.344Z,-1.51
2016-12-11T04:11:41.668Z,-1.46
2016-12-11T04:12:41.671Z,-1.5
2016-12-11T04:13:41.336Z,-1.5
2016-12-11T04:14:41.336Z,-1.53
2016-12-11T04:15:41.332Z,-1.48
2016-12-11T04:16:41.652Z,-1.46
2016-12-11T04:17:41.316Z,-1.54
2016-12-11T04:18:41.640Z,-1.51
2016-12-11T04:19:41.304Z,-1.57
2016-12-11T04:20:41.628Z,-1.53
2016-12-11T04:21:41.552Z,-1.51
2016-12-11T04:22:41.300Z,-1.57
2016-12-11T04:23:41.300Z,-1.56
2016-12-11T04:24:41.284Z,-1.66
2016-12-11T04:25:41.276Z,-1.66
2016-12-11T04:26:41.268Z,-1.68
2016-12-11T04:27:41.620Z,-1.63
2016-12-11T04:28:41.268Z,-1.61
2016-12-11T04:29:40.933Z,-1.61
2016-12-11T04:30:41.260Z,-1.63
2016-12-11T04:31:41.580Z,-1.57
2016-12-11T04:32:41.576Z,-1.66
2016-12-11T04:33:41.244Z,-1.71
2016-12-11T04:34:41.233Z,-1.74
2016-12-11T04:35:41.229Z,-1.72
2016-12-11T04:36:41.561Z,-1.66
2016-12-11T04:37:41.228Z,-1.82
2016-12-11T04:38:41.221Z,-1.72
2016-12-11T04:39:41.216Z,-1.69
2016-12-11T04:40:41.217Z,-1.79
2016-12-11T04:41:41.541Z,-1.79
2016-12-11T04:42:41.205Z,-1.71
2016-12-11T04:43:41.205Z,-1.78
2016-12-11T04:44:40.865Z,-1.76
2016-12-11T04:45:41.521Z,-1.82
2016-12-11T04:46:41.517Z,-1.81
2016-12-11T04:47:41.513Z,-1.74
2016-12-11T04:48:41.209Z,-1.69
2016-12-11T04:49:41.170Z,-1.72
2016-12-11T04:50:41.169Z,-1.78
2016-12-11T04:51:41.497Z,-1.78
2016-12-11T04:52:41.161Z,-1.75
2016-12-11T04:53:41.153Z,-1.72
2016-12-11T04:54:41.486Z,-1.71
2016-12-11T04:55:41.478Z,-1.79
2016-12-11T04:56:41.142Z,-1.75
2016-12-11T04:57:41.474Z,-1.74
2016-12-11T04:58:41.462Z,-1.69
2016-12-11T04:59:41.454Z,-1.69
2016-12-11T05:00:41.134Z,-1.63
2016-12-11T05:01:41.474Z,-1.66
2016-12-11T05:02:41.438Z,-1.69
2016-12-11T05:03:41.469Z,-1.78
2016-12-11T05:04:41.442Z,-1.79
2016-12-11T05:05:41.138Z,-1.82
2016-12-11T05:06:41.102Z,-1.86
2016-12-11T05:07:41.422Z,-1.89
2016-12-11T05:08:41.086Z,-1.86
2016-12-11T05:09:40.758Z,-1.84
2016-12-11T05:10:41.082Z,-1.82
2016-12-11T05:11:41.398Z,-1.9
2016-12-11T05:12:41.073Z,-1.9
2016-12-11T05:13:41.067Z,-1.86
2016-12-11T05:14:41.390Z,-1.87
2016-12-11T05:15:41.382Z,-1.89
2016-12-11T05:16:41.054Z,-1.89
2016-12-11T05:17:41.055Z,-1.87
2016-12-11T05:18:41.047Z,-1.87
2016-12-11T05:19:41.039Z,-1.89
2016-12-11T05:20:41.038Z,-1.87
2016-12-11T05:21:40.702Z,-1.92
2016-12-11T05:22:41.026Z,-1.93
2016-12-11T05:23:41.347Z,-1.84
2016-12-11T05:24:41.350Z,-1.81
2016-12-11T05:25:40.682Z,-1.79
2016-12-11T05:26:41.034Z,-1.84
2016-12-11T05:27:41.007Z,-1.87
2016-12-11T05:28:40.994Z,-1.82
2016-12-11T05:29:40.666Z,-1.84
2016-12-11T05:30:41.318Z,-1.78
2016-12-11T05:31:40.978Z,-1.79
2016-12-11T05:32:40.974Z,-1.66
2016-12-11T05:33:40.983Z,-1.68
2016-12-11T05:34:40.974Z,-1.63
2016-12-11T05:35:40.970Z,-1.71
2016-12-11T05:36:41.294Z,-1.51
2016-12-11T05:37:41.282Z,-1.5
2016-12-11T05:38:41.290Z,-1.43
2016-12-11T05:39:41.278Z,-1.43
2016-12-11T05:40:40.946Z,-1.51
2016-12-11T05:41:40.938Z,-1.36
2016-12-11T05:42:41.270Z,-1.35
2016-12-11T05:43:41.258Z,-1.42
2016-12-11T05:44:40.940Z,-1.35
2016-12-11T05:45:40.918Z,-1.19
2016-12-11T05:46:41.250Z,-1.18
2016-12-11T05:47:40.912Z,-1.29
2016-12-11T05:48:40.913Z,-1.09
2016-12-11T05:49:41.234Z,-1.14
2016-12-11T05:50:41.226Z,-1.04
2016-12-11T05:51:40.897Z,-1.03
2016-12-11T05:52:41.213Z,-1.04
2016-12-11T05:53:41.214Z,-1.03
2016-12-11T05:54:41.209Z,-0.97
2016-12-11T05:55:40.897Z,-1
2016-12-11T05:56:41.205Z,-0.97
2016-12-11T05:57:40.873Z,-0.94
2016-12-11T05:58:41.183Z,-0.99
2016-12-11T05:59:40.857Z,-0.91
2016-12-11T06:00:41.185Z,-0.96
2016-12-11T06:01:40.850Z,-0.89
2016-12-11T06:02:40.833Z,-0.87
2016-12-11T06:03:40.849Z,-0.97
2016-12-11T06:04:40.837Z,-0.96
2016-12-11T06:05:41.161Z,-0.99
2016-12-11T06:06:40.830Z,-0.85
2016-12-11T06:07:40.817Z,-0.99
2016-12-11T06:08:41.149Z,-0.81
2016-12-11T06:09:41.141Z,-0.85
2016-12-11T06:10:40.797Z,-0.84
2016-12-11T06:11:41.133Z,-0.78
2016-12-11T06:12:41.125Z,-0.82
2016-12-11T06:13:40.789Z,-0.8
2016-12-11T06:14:41.109Z,-0.8
2016-12-11T06:15:41.113Z,-0.91
2016-12-11T06:16:40.457Z,-0.96
2016-12-11T06:17:41.105Z,-0.93
2016-12-11T06:18:41.097Z,-0.89
2016-12-11T06:19:41.097Z,-0.84
2016-12-11T06:20:40.437Z,-0.85
2016-12-11T06:21:41.083Z,-0.78
2016-12-11T06:22:40.753Z,-0.75
2016-12-11T06:23:40.749Z,-0.78
2016-12-11T06:24:40.742Z,-0.7
2016-12-11T06:25:41.070Z,-0.77
2016-12-11T06:26:41.061Z,-0.85
2016-12-11T06:27:41.061Z,-0.75
2016-12-11T06:28:40.729Z,-0.85
2016-12-11T06:29:40.722Z,-0.87
2016-12-11T06:30:41.058Z,-0.84
2016-12-11T06:31:41.034Z,-0.75
2016-12-11T06:32:40.382Z,-0.85
2016-12-11T06:33:40.702Z,-0.75
2016-12-11T06:34:40.698Z,-0.8
2016-12-11T06:35:41.018Z,-0.77
2016-12-11T06:36:40.366Z,-0.75
2016-12-11T06:37:40.690Z,-0.81
2016-12-11T06:38:41.010Z,-0.85
2016-12-11T06:39:40.670Z,-0.82
2016-12-11T06:40:40.670Z,-0.81
2016-12-11T06:41:41.002Z,-0.85
2016-12-11T06:42:40.990Z,-1.03
2016-12-11T06:43:40.990Z,-0.97
2016-12-11T06:44:40.655Z,-0.99
2016-12-11T06:45:40.647Z,-0.97
2016-12-11T06:46:40.979Z,-1.04
2016-12-11T06:47:40.970Z,-1.01
2016-12-11T06:48:40.635Z,-1.03
2016-12-11T06:49:40.967Z,-1.03
2016-12-11T06:50:40.951Z,-1.03
2016-12-11T06:51:40.954Z,-1.04
2016-12-11T06:52:40.643Z,-1.12
2016-12-11T06:53:40.942Z,-1.19
2016-12-11T06:54:40.610Z,-1.17
2016-12-11T06:55:40.610Z,-1.24
2016-12-11T06:56:40.934Z,-1.25
2016-12-11T06:57:40.598Z,-1.33
2016-12-11T06:58:40.590Z,-1.36
2016-12-11T06:59:40.919Z,-1.39
2016-12-11T07:00:40.914Z,-1.43
2016-12-11T07:01:40.902Z,-1.53
2016-12-11T07:02:40.930Z,-1.56
2016-12-11T07:03:40.891Z,-1.61
2016-12-11T07:04:40.887Z,-1.66
2016-12-11T07:05:40.563Z,-1.74
2016-12-11T07:06:40.883Z,-1.79
2016-12-11T07:07:40.551Z,-1.84
2016-12-11T07:08:40.875Z,-1.87
2016-12-11T07:09:40.215Z,-1.89
2016-12-11T07:10:40.859Z,-1.89
2016-12-11T07:11:40.567Z,-1.94
2016-12-11T07:12:40.531Z,-2.02
2016-12-11T07:13:40.527Z,-2.02
2016-12-11T07:14:40.191Z,-1.99
2016-12-11T07:15:40.843Z,-2.14
2016-12-11T07:16:40.519Z,-2.18
2016-12-11T07:17:40.839Z,-2.18
2016-12-11T07:18:40.503Z,-2.11
2016-12-11T07:19:40.177Z,-2.18
2016-12-11T07:20:40.819Z,-2.22
2016-12-11T07:21:40.823Z,-2.22
2016-12-11T07:22:40.812Z,-2.22
2016-12-11T07:23:40.480Z,-2.22
2016-12-11T07:24:40.479Z,-2.22
2016-12-11T07:25:40.152Z,-2.26
2016-12-11T07:26:40.791Z,-2.23
2016-12-11T07:27:40.784Z,-2.22
2016-12-11T07:28:40.136Z,-2.22
2016-12-11T07:29:40.784Z,-2.22
2016-12-11T07:30:40.124Z,-2.32
2016-12-11T07:31:40.448Z,-2.32
2016-12-11T07:32:40.115Z,-2.23
2016-12-11T07:33:40.456Z,-2.26
2016-12-11T07:34:40.428Z,-2.33
2016-12-11T07:35:40.756Z,-2.34
2016-12-11T07:36:40.748Z,-2.18
2016-12-11T07:37:40.420Z,-2.23
2016-12-11T07:38:40.419Z,-2.28
2016-12-11T07:39:40.744Z,-2.17
2016-12-11T07:40:40.081Z,-2.07
2016-12-11T07:41:40.736Z,-2
2016-12-11T07:42:40.388Z,-1.96
2016-12-11T07:43:40.396Z,-1.94
2016-12-11T07:44:40.064Z,-1.86
2016-12-11T07:45:40.708Z,-1.82
2016-12-11T07:46:40.384Z,-1.84
2016-12-11T07:47:40.052Z,-1.89
2016-12-11T07:48:40.704Z,-1.82
2016-12-11T07:49:40.696Z,-1.79
2016-12-11T07:50:40.689Z,-1.71
2016-12-11T07:51:40.356Z,-1.69
2016-12-11T07:52:40.360Z,-1.63
2016-12-11T07:53:40.344Z,-1.63
2016-12-11T07:54:40.712Z,-1.61
2016-12-11T07:55:40.660Z,-1.5
2016-12-11T07:56:40.664Z,-1.46
2016-12-11T07:57:40.330Z,-1.38
2016-12-11T07:58:40.652Z,-1.27
2016-12-11T07:59:40.321Z,-1.19
2016-12-11T08:00:40.309Z,-1.03
2016-12-11T08:01:40.313Z,-1.01
2016-12-11T08:02:40.301Z,-0.75
2016-12-11T08:03:40.297Z,-0.78
2016-12-11T08:04:40.297Z,-0.67
2016-12-11T08:05:40.629Z,-0.57
2016-12-11T08:06:40.292Z,-0.49
2016-12-11T08:07:40.292Z,-0.38
2016-12-11T08:08:40.621Z,-0.39
2016-12-11T08:09:40.609Z,-0.27
2016-12-11T08:10:40.269Z,-0.3
2016-12-11T08:11:39.941Z,-0.27
2016-12-11T08:12:40.269Z,-0.28
2016-12-11T08:13:40.581Z,-0.26
2016-12-11T08:14:39.929Z,-0.2
2016-12-11T08:15:40.249Z,-0.23
2016-12-11T08:16:40.581Z,-0.23
2016-12-11T08:17:40.573Z,-0.18
2016-12-11T08:18:40.243Z,-0.23
2016-12-11T08:19:40.565Z,-0.21
2016-12-11T08:20:39.909Z,-0.21
2016-12-11T08:21:40.229Z,-0.27
2016-12-11T08:22:40.225Z,-0.23
2016-12-11T08:23:40.577Z,-0.24
2016-12-11T08:24:40.533Z,-0.28
2016-12-11T08:25:40.537Z,-0.18
2016-12-11T08:26:40.533Z,-0.07
2016-12-11T08:27:40.521Z,0
2016-12-11T08:28:40.189Z,0
2016-12-11T08:29:40.189Z,0.11
2016-12-11T08:30:39.853Z,0.2
2016-12-11T08:31:40.185Z,0.37
2016-12-11T08:32:40.513Z,0.49
2016-12-11T08:33:40.505Z,0.56
2016-12-11T08:34:40.501Z,0.71
2016-12-11T08:35:40.493Z,0.71
2016-12-11T08:36:40.161Z,0.91
2016-12-11T08:37:40.161Z,1.03
2016-12-11T08:38:40.485Z,1.03
2016-12-11T08:39:40.477Z,1.18
2016-12-11T08:40:40.477Z,1.25
2016-12-11T08:41:39.813Z,1.31
2016-12-11T08:42:40.145Z,1.48
2016-12-11T08:43:40.465Z,1.53
2016-12-11T08:44:40.134Z,1.71
2016-12-11T08:45:40.466Z,1.6
2016-12-11T08:46:40.453Z,1.76
2016-12-11T08:47:40.445Z,1.7
2016-12-11T08:48:40.445Z,1.68
2016-12-11T08:49:40.437Z,1.75
2016-12-11T08:50:40.434Z,1.79
2016-12-11T08:51:40.434Z,1.75
2016-12-11T08:52:40.433Z,1.86
2016-12-11T08:53:40.417Z,1.89
2016-12-11T08:54:40.421Z,2.04
2016-12-11T08:55:40.093Z,2.14
2016-12-11T08:56:40.081Z,2.37
2016-12-11T08:57:40.418Z,2.5
2016-12-11T08:58:40.077Z,2.68
2016-12-11T08:59:40.074Z,2.93
2016-12-11T09:00:40.394Z,2.94
2016-12-11T09:01:40.394Z,3.05
2016-12-11T09:02:40.070Z,3.08
2016-12-11T09:03:40.058Z,3.12
2016-12-11T09:04:40.061Z,3
2016-12-11T09:05:40.054Z,3.06
2016-12-11T09:06:40.050Z,3.03
2016-12-11T09:07:40.374Z,2.82
2016-12-11T09:08:40.042Z,2.8
2016-12-11T09:09:40.034Z,2.87
2016-12-11T09:10:40.034Z,3.01
2016-12-11T09:11:40.350Z,2.94
2016-12-11T09:12:40.358Z,2.95
2016-12-11T09:13:39.706Z,2.98
2016-12-11T09:14:40.338Z,3.05
2016-12-11T09:15:40.006Z,3.01
2016-12-11T09:16:39.678Z,2.94
2016-12-11T09:17:40.342Z,2.91
2016-12-11T09:18:40.014Z,2.88
2016-12-11T09:19:40.331Z,2.85
2016-12-11T09:20:40.331Z,2.85
2016-12-11T09:21:39.666Z,2.82
2016-12-11T09:22:39.991Z,2.72
2016-12-11T09:23:40.315Z,2.64
2016-12-11T09:24:39.979Z,2.55
2016-12-11T09:25:40.303Z,2.55
2016-12-11T09:26:39.975Z,2.5
2016-12-11T09:27:39.975Z,2.44
2016-12-11T09:28:40.295Z,2.44
2016-12-11T09:29:40.297Z,2.4
2016-12-11T09:30:39.971Z,2.28
2016-12-11T09:31:40.291Z,2.33
2016-12-11T09:32:40.311Z,2.22
2016-12-11T09:33:40.272Z,2.23
2016-12-11T09:34:40.272Z,2.18
2016-12-11T09:35:40.268Z,2.15
2016-12-11T09:36:40.268Z,2.1
2016-12-11T09:37:40.268Z,2.05
2016-12-11T09:38:39.932Z,2.01
2016-12-11T09:39:40.280Z,1.95
2016-12-11T09:40:40.256Z,1.89
2016-12-11T09:41:39.916Z,1.81
2016-12-11T09:42:39.600Z,1.79
2016-12-11T09:43:39.920Z,1.75
2016-12-11T09:44:40.233Z,1.82
2016-12-11T09:45:40.240Z,1.85
2016-12-11T09:46:39.909Z,1.79
2016-12-11T09:47:40.237Z,1.86
2016-12-11T09:48:39.905Z,1.85
2016-12-11T09:49:40.225Z,1.85
2016-12-11T09:50:39.889Z,1.95
2016-12-11T09:51:39.881Z,1.93
2016-12-11T09:52:40.209Z,1.97
2016-12-11T09:53:40.211Z,1.92
2016-12-11T09:54:40.205Z,1.93
2016-12-11T09:55:39.869Z,1.89
2016-12-11T09:56:39.545Z,2.08
2016-12-11T09:57:39.533Z,2.01
2016-12-11T09:58:39.849Z,2
2016-12-11T09:59:40.185Z,2.1
2016-12-11T10:00:40.181Z,1.98
2016-12-11T10:01:39.841Z,1.97
2016-12-11T10:02:40.173Z,1.97
2016-12-11T10:03:39.857Z,1.98
2016-12-11T10:04:39.845Z,1.92
2016-12-11T10:05:39.509Z,1.95
2016-12-11T10:06:40.169Z,1.88
2016-12-11T10:07:39.833Z,1.93
2016-12-11T10:08:39.493Z,1.89
2016-12-11T10:09:40.149Z,2
2016-12-11T10:10:39.485Z,1.93
2016-12-11T10:11:40.141Z,1.95
2016-12-11T10:12:39.477Z,2.03
2016-12-11T10:13:39.809Z,2
2016-12-11T10:14:39.813Z,1.97
2016-12-11T10:15:39.812Z,2.01
2016-12-11T10:16:39.797Z,2.08
2016-12-11T10:17:39.789Z,2.05
2016-12-11T10:18:39.797Z,2.01
2016-12-11T10:19:39.785Z,2.1
2016-12-11T10:20:40.109Z,2.14
2016-12-11T10:21:39.777Z,2.15
2016-12-11T10:22:39.776Z,2.18
2016-12-11T10:23:40.104Z,2.25
2016-12-11T10:24:40.088Z,2.36
2016-12-11T10:25:40.094Z,2.33
2016-12-11T10:26:39.760Z,2.5
2016-12-11T10:27:39.761Z,2.46
2016-12-11T10:28:39.752Z,2.5
2016-12-11T10:29:40.084Z,2.64
2016-12-11T10:30:40.064Z,2.64
2016-12-11T10:31:39.748Z,2.59
2016-12-11T10:32:40.060Z,2.68
2016-12-11T10:33:39.732Z,2.64
2016-12-11T10:34:39.732Z,2.52
2016-12-11T10:35:39.728Z,2.61
2016-12-11T10:36:39.717Z,2.62
2016-12-11T10:37:40.041Z,2.57
2016-12-11T10:38:39.385Z,2.57
2016-12-11T10:39:40.041Z,2.59
2016-12-11T10:40:39.705Z,2.65
2016-12-11T10:41:40.029Z,2.64
2016-12-11T10:42:40.029Z,2.65
2016-12-11T10:43:39.693Z,2.62
2016-12-11T10:44:39.697Z,2.64
2016-12-11T10:45:40.014Z,2.62
2016-12-11T10:46:39.689Z,2.61
2016-12-11T10:47:39.674Z,2.65
2016-12-11T10:48:40.010Z,2.59
2016-12-11T10:49:40.003Z,2.64
2016-12-11T10:50:39.678Z,2.7
2016-12-11T10:51:39.994Z,2.75
2016-12-11T10:52:39.982Z,2.76
2016-12-11T10:53:39.995Z,2.83
2016-12-11T10:54:39.662Z,2.9
2016-12-11T10:55:39.978Z,2.87
2016-12-11T10:56:39.994Z,2.98
2016-12-11T10:57:39.979Z,3
2016-12-11T10:58:39.975Z,3.05
2016-12-11T10:59:39.647Z,3.03
2016-12-11T11:00:39.311Z,3.01
2016-12-11T11:01:39.307Z,3.11
2016-12-11T11:02:39.955Z,3.12
2016-12-11T11:03:39.955Z,3.05
2016-12-11T11:04:39.943Z,2.97
2016-12-11T11:05:39.627Z,3
2016-12-11T11:06:39.615Z,3.12
2016-12-11T11:07:39.935Z,3.15
2016-12-11T11:08:39.604Z,3.16
2016-12-11T11:09:39.599Z,3.21
2016-12-11T11:10:39.612Z,3.19
2016-12-11T11:11:39.920Z,3.36
2016-12-11T11:12:39.924Z,3.26
2016-12-11T11:13:39.592Z,3.36
2016-12-11T11:14:39.252Z,3.3
2016-12-11T11:15:39.592Z,3.37
2016-12-11T11:16:39.909Z,3.49
2016-12-11T11:17:39.573Z,3.59
2016-12-11T11:18:40.052Z,3.68
2016-12-11T11:19:39.896Z,3.77
2016-12-11T11:20:39.569Z,3.81
2016-12-11T11:21:39.561Z,3.86
2016-12-11T11:22:39.561Z,4
2016-12-11T11:23:39.381Z,4.02
2016-12-11T11:24:39.881Z,4.04
2016-12-11T11:25:39.209Z,4.06
2016-12-11T11:26:39.873Z,4.09
2016-12-11T11:27:39.541Z,4.16
2016-12-11T11:28:39.866Z,4.22
2016-12-11T11:29:39.537Z,4.27
2016-12-11T11:30:39.548Z,4.25
2016-12-11T11:31:39.857Z,4.38
2016-12-11T11:32:39.190Z,4.42
2016-12-11T11:33:39.854Z,4.32
2016-12-11T11:34:39.842Z,4.34
2016-12-11T11:35:39.838Z,4.34
2016-12-11T11:36:39.510Z,4.4
2016-12-11T11:37:39.186Z,4.38
2016-12-11T11:38:39.834Z,4.34
2016-12-11T11:39:39.827Z,4.36
2016-12-11T11:40:39.818Z,4.53
2016-12-11T11:41:39.490Z,4.45
2016-12-11T11:42:39.495Z,4.48
2016-12-11T11:43:39.491Z,4.45
2016-12-11T11:44:39.487Z,4.49
2016-12-11T11:45:39.804Z,4.53
2016-12-11T11:46:39.803Z,4.6
2016-12-11T11:47:39.467Z,4.64
2016-12-11T11:48:39.467Z,4.53
2016-12-11T11:49:39.144Z,4.53
2016-12-11T11:50:39.463Z,4.53
2016-12-11T11:51:39.783Z,4.53
2016-12-11T11:52:39.784Z,4.63
2016-12-11T11:53:39.456Z,4.57
2016-12-11T11:54:39.444Z,4.5
2016-12-11T11:55:39.792Z,4.48
2016-12-11T11:56:39.800Z,4.57
2016-12-11T11:57:39.764Z,4.46
2016-12-11T11:58:39.764Z,4.58
2016-12-11T11:59:39.760Z,4.45
2016-12-11T12:00:39.756Z,4.57
2016-12-11T12:01:39.746Z,4.56
2016-12-11T12:02:39.420Z,4.46
2016-12-11T12:03:39.748Z,4.45
2016-12-11T12:04:39.420Z,4.48
2016-12-11T12:05:39.736Z,4.48
2016-12-11T12:06:39.408Z,4.45
2016-12-11T12:07:39.404Z,4.53
2016-12-11T12:08:39.720Z,4.5
2016-12-11T12:09:39.396Z,4.45
2016-12-11T12:10:39.724Z,4.4
2016-12-11T12:11:39.396Z,4.36
2016-12-11T12:12:39.716Z,4.43
2016-12-11T12:13:39.384Z,4.38
2016-12-11T12:14:39.376Z,4.38
2016-12-11T12:15:39.704Z,4.46
2016-12-11T12:16:39.700Z,4.45
2016-12-11T12:17:39.700Z,4.34
2016-12-11T12:18:39.856Z,4.38
2016-12-11T12:19:39.684Z,4.39
2016-12-11T12:20:39.372Z,4.5
2016-12-11T12:21:39.812Z,4.48
2016-12-11T12:22:39.356Z,4.48
2016-12-11T12:23:39.676Z,4.53
2016-12-11T12:24:39.675Z,4.56
2016-12-11T12:25:39.675Z,4.56
2016-12-11T12:26:39.343Z,4.57
2016-12-11T12:27:39.672Z,4.58
2016-12-11T12:28:39.335Z,4.61
2016-12-11T12:29:39.327Z,4.58
2016-12-11T12:30:39.659Z,4.57
2016-12-11T12:31:39.651Z,4.58
2016-12-11T12:32:39.655Z,4.63
2016-12-11T12:33:39.319Z,4.61
2016-12-11T12:34:39.644Z,4.52
2016-12-11T12:35:39.639Z,4.46
2016-12-11T12:36:39.307Z,4.52
2016-12-11T12:37:39.303Z,4.42
2016-12-11T12:38:39.299Z,4.38
2016-12-11T12:39:39.300Z,4.4
2016-12-11T12:40:39.620Z,4.34
2016-12-11T12:41:39.620Z,4.38
2016-12-11T12:42:39.611Z,4.46
2016-12-11T12:43:39.281Z,4.49
2016-12-11T12:44:39.283Z,4.43
2016-12-11T12:45:38.948Z,4.46
2016-12-11T12:46:39.272Z,4.36
2016-12-11T12:47:39.596Z,4.38
2016-12-11T12:48:39.264Z,4.42
2016-12-11T12:49:39.611Z,4.4
2016-12-11T12:50:39.260Z,4.4
2016-12-11T12:51:39.252Z,4.32
2016-12-11T12:52:39.576Z,4.36
2016-12-11T12:53:39.572Z,4.34
2016-12-11T12:54:39.576Z,4.31
2016-12-11T12:55:39.572Z,4.34
2016-12-11T12:56:39.560Z,4.38
2016-12-11T12:57:39.568Z,4.42
2016-12-11T12:58:39.432Z,4.4
2016-12-11T12:59:39.228Z,4.39
2016-12-11T13:00:39.224Z,4.32
2016-12-11T13:01:39.220Z,4.38
2016-12-11T13:02:39.540Z,4.34
2016-12-11T13:03:39.204Z,4.22
2016-12-11T13:04:38.881Z,4.27
2016-12-11T13:05:39.540Z,4.31